createdAt,value
2018-11-28T00:00:45.265Z,28.77
2018-11-28T00:03:23.192Z,25.37
2018-11-28T00:06:01.343Z,26.87
2018-11-28T00:08:36.010Z,28.03
2018-11-28T00:11:14.757Z,28.32
2018-11-28T00:13:50.627Z,28.20
2018-11-28T00:16:27.192Z,27.03
2018-11-28T00:19:04.327Z,25.70
2018-11-28T00:21:45.202Z,26.27
2018-11-28T00:24:23.003Z,27.77
2018-11-28T00:26:57.432Z,26.60
2018-11-28T00:29:34.631Z,26.20
2018-11-28T00:32:13.065Z,25.53
2018-11-28T00:34:49.839Z,29.77
2018-11-28T00:37:28.665Z,26.63
2018-11-28T00:40:06.202Z,26.20
2018-11-28T00:42:41.619Z,27.60
2018-11-28T00:45:25.385Z,28.47
2018-11-28T00:48:04.843Z,26.40
2018-11-28T00:50:46.124Z,27.07
2018-11-28T00:53:26.232Z,29.23
2018-11-28T00:56:06.786Z,26.67
2018-11-28T00:58:47.962Z,24.73
2018-11-28T01:01:28.683Z,28.57
2018-11-28T01:04:07.583Z,26.27
2018-11-28T01:06:49.417Z,28.43
2018-11-28T01:09:31.150Z,28.17
2018-11-28T01:12:10.653Z,28.67
2018-11-28T01:14:51.202Z,27.33
2018-11-28T01:17:29.697Z,25.10
2018-11-28T01:20:07.888Z,26.40
2018-11-28T01:22:46.066Z,26.40
2018-11-28T01:25:26.130Z,27.70
2018-11-28T01:28:03.267Z,29.00
2018-11-28T01:30:39.028Z,27.00
2018-11-28T01:33:08.406Z,25.90
2018-11-28T01:35:37.776Z,26.40
2018-11-28T01:38:07.447Z,26.33
2018-11-28T01:40:37.049Z,28.60
2018-11-28T01:43:07.482Z,28.17
2018-11-28T01:45:36.851Z,26.43
2018-11-28T01:48:06.365Z,26.20
2018-11-28T01:50:35.779Z,26.97
2018-11-28T01:53:06.278Z,26.84
2018-11-28T01:55:35.688Z,28.17
2018-11-28T01:58:05.330Z,28.87
2018-11-28T02:00:34.664Z,27.30
2018-11-28T02:03:04.478Z,28.00
2018-11-28T02:05:33.861Z,25.90
2018-11-28T02:08:03.251Z,27.80
2018-11-28T02:10:34.883Z,27.43
2018-11-28T02:13:04.348Z,27.13
2018-11-28T02:15:33.753Z,28.27
2018-11-28T02:18:03.191Z,26.33
2018-11-28T02:20:32.674Z,25.53
2018-11-28T02:23:02.030Z,28.77
2018-11-28T02:25:31.373Z,27.93
2018-11-28T02:28:00.720Z,27.00
2018-11-28T02:30:30.075Z,27.23
2018-11-28T02:32:59.418Z,25.70
2018-11-28T02:35:28.782Z,28.03
2018-11-28T02:37:58.157Z,26.35
2018-11-28T02:40:27.543Z,28.60
2018-11-28T02:42:56.917Z,26.53
2018-11-28T02:45:26.297Z,26.57
2018-11-28T02:47:55.657Z,28.23
2018-11-28T02:50:24.990Z,25.93
2018-11-28T02:52:54.592Z,27.60
2018-11-28T02:55:24.214Z,30.10
2018-11-28T02:57:53.727Z,28.30
2018-11-28T03:00:24.882Z,27.87
2018-11-28T03:02:54.888Z,27.10
2018-11-28T03:05:24.486Z,27.20
2018-11-28T03:07:54.035Z,27.57
2018-11-28T03:10:24.078Z,25.90
2018-11-28T03:12:53.583Z,28.00
2018-11-28T03:15:28.561Z,26.23
2018-11-28T03:17:58.247Z,27.90
2018-11-28T03:20:27.810Z,24.50
2018-11-28T03:22:57.363Z,26.07
2018-11-28T03:25:26.913Z,27.90
2018-11-28T03:27:56.414Z,28.87
2018-11-28T03:30:26.029Z,27.73
2018-11-28T03:32:55.632Z,26.87
2018-11-28T03:35:25.021Z,25.50
2018-11-28T03:37:54.434Z,26.93
2018-11-28T03:40:23.806Z,24.97
2018-11-28T03:42:53.202Z,27.53
2018-11-28T03:45:22.600Z,26.12
2018-11-28T03:47:51.995Z,26.10
2018-11-28T03:50:21.386Z,27.87
2018-11-28T03:52:50.779Z,24.90
2018-11-28T03:55:20.146Z,25.80
2018-11-28T03:57:49.656Z,26.27
2018-11-28T04:00:20.937Z,25.50
2018-11-28T04:02:50.742Z,26.37
2018-11-28T04:05:20.331Z,24.17
2018-11-28T04:07:49.694Z,26.47
2018-11-28T04:10:19.060Z,27.75
2018-11-28T04:12:48.406Z,28.00
2018-11-28T04:15:19.152Z,26.75
2018-11-28T04:17:48.623Z,26.27
2018-11-28T04:20:19.426Z,27.50
2018-11-28T04:22:48.823Z,27.73
2018-11-28T04:25:19.840Z,27.15
2018-11-28T04:27:49.280Z,26.55
2018-11-28T04:30:20.772Z,26.10
2018-11-28T04:32:50.903Z,27.27
2018-11-28T04:35:20.261Z,25.50
2018-11-28T04:37:49.642Z,26.33
2018-11-28T04:40:20.419Z,24.53
2018-11-28T04:42:50.168Z,27.60
2018-11-28T04:45:27.955Z,26.87
2018-11-28T04:47:57.322Z,25.17
2018-11-28T04:50:26.682Z,26.40
2018-11-28T04:52:56.088Z,28.53
2018-11-28T04:55:25.485Z,27.60
2018-11-28T04:57:54.885Z,26.40
2018-11-28T05:00:27.070Z,27.63
2018-11-28T05:02:57.715Z,27.23
2018-11-28T05:05:27.103Z,25.50
2018-11-28T05:07:57.464Z,27.07
2018-11-28T05:10:30.940Z,28.40
2018-11-28T05:13:01.193Z,26.60
2018-11-28T05:15:32.216Z,26.97
2018-11-28T05:18:01.716Z,25.30
2018-11-28T05:20:33.528Z,26.63
2018-11-28T05:23:03.653Z,25.07
2018-11-28T05:25:34.286Z,25.50
2018-11-28T05:28:03.696Z,27.77
2018-11-28T05:30:33.734Z,26.60
2018-11-28T05:33:03.293Z,27.23
2018-11-28T05:35:38.308Z,26.70
2018-11-28T05:38:15.854Z,27.73
2018-11-28T05:40:45.852Z,22.97
2018-11-28T05:43:15.207Z,27.07
2018-11-28T05:45:44.594Z,23.27
2018-11-28T05:48:15.179Z,27.50
2018-11-28T05:50:43.501Z,24.13
2018-11-28T05:53:13.090Z,28.07
2018-11-28T05:55:42.528Z,24.43
2018-11-28T05:58:11.929Z,26.03
2018-11-28T06:00:42.139Z,26.73
2018-11-28T06:03:12.976Z,25.15
2018-11-28T06:05:43.205Z,26.33
2018-11-28T06:08:12.727Z,25.52
2018-11-28T06:10:42.117Z,25.20
2018-11-28T06:13:11.473Z,26.70
2018-11-28T06:15:40.786Z,25.90
2018-11-28T06:18:10.721Z,24.23
2018-11-28T06:20:40.107Z,23.97
2018-11-28T06:23:09.462Z,26.17
2018-11-28T06:25:38.840Z,24.90
2018-11-28T06:28:08.249Z,25.37
2018-11-28T06:30:37.753Z,24.63
2018-11-28T06:33:07.289Z,27.32
2018-11-28T06:35:36.712Z,25.63
2018-11-28T06:38:06.575Z,25.62
2018-11-28T06:40:35.947Z,26.07
2018-11-28T06:43:06.404Z,26.12
2018-11-28T06:45:35.789Z,25.83
2018-11-28T06:48:06.648Z,26.60
2018-11-28T06:50:36.012Z,27.60
2018-11-28T06:53:06.144Z,26.45
2018-11-28T06:55:35.465Z,23.93
2018-11-28T06:58:06.635Z,27.03
2018-11-28T07:00:35.965Z,26.07
2018-11-28T07:03:06.325Z,26.13
2018-11-28T07:05:35.706Z,25.70
2018-11-28T07:08:06.837Z,23.73
2018-11-28T07:10:36.448Z,24.20
2018-11-28T07:13:07.763Z,25.27
2018-11-28T07:15:37.088Z,26.00
2018-11-28T07:18:23.259Z,25.17
2018-11-28T07:20:52.646Z,27.60
2018-11-28T07:23:22.021Z,24.37
2018-11-28T07:25:51.422Z,26.80
2018-11-28T07:28:20.847Z,26.90
2018-11-28T07:30:55.298Z,24.07
2018-11-28T07:33:24.645Z,26.30
2018-11-28T07:35:54.054Z,25.57
2018-11-28T07:38:23.461Z,26.30
2018-11-28T07:40:52.865Z,26.60
2018-11-28T07:43:22.235Z,26.02
2018-11-28T07:45:52.843Z,26.23
2018-11-28T07:48:22.211Z,26.27
2018-11-28T07:50:51.859Z,25.93
2018-11-28T07:53:21.217Z,26.37
2018-11-28T07:55:50.667Z,27.43
2018-11-28T07:58:20.090Z,25.57
2018-11-28T08:00:49.473Z,26.40
2018-11-28T08:03:18.842Z,26.77
2018-11-28T08:05:48.214Z,23.73
2018-11-28T08:08:17.568Z,26.90
2018-11-28T08:10:46.980Z,24.70
2018-11-28T08:13:16.346Z,27.52
2018-11-28T08:15:45.815Z,26.33
2018-11-28T08:18:15.181Z,23.93
2018-11-28T08:20:44.558Z,25.10
2018-11-28T08:23:13.972Z,26.10
2018-11-28T08:25:43.360Z,24.73
2018-11-28T08:28:12.733Z,24.73
2018-11-28T08:30:42.121Z,26.03
2018-11-28T08:33:11.506Z,27.03
2018-11-28T08:35:40.897Z,26.33
2018-11-28T08:38:10.324Z,25.73
2018-11-28T08:40:39.676Z,25.20
2018-11-28T08:43:09.092Z,23.47
2018-11-28T08:45:38.642Z,26.20
2018-11-28T08:48:08.065Z,24.98
2018-11-28T08:50:38.845Z,25.10
2018-11-28T08:53:08.619Z,25.20
2018-11-28T08:55:37.957Z,24.83
2018-11-28T08:58:07.348Z,25.10
2018-11-28T09:00:37.115Z,24.77
2018-11-28T09:03:07.147Z,26.37
2018-11-28T09:05:36.488Z,26.57
2018-11-28T09:08:06.134Z,24.37
2018-11-28T09:10:35.479Z,24.73
2018-11-28T09:13:06.594Z,25.10
2018-11-28T09:15:35.955Z,25.50
2018-11-28T09:18:06.407Z,26.97
2018-11-28T09:20:35.786Z,24.93
2018-11-28T09:23:05.919Z,24.80
2018-11-28T09:25:35.266Z,25.47
2018-11-28T09:28:06.396Z,25.13
2018-11-28T09:30:36.010Z,25.53
2018-11-28T09:33:06.819Z,25.48
2018-11-28T09:35:36.213Z,24.13
2018-11-28T09:38:06.226Z,25.70
2018-11-28T09:40:35.617Z,24.02
2018-11-28T09:43:07.122Z,25.10
2018-11-28T09:45:36.558Z,24.50
2018-11-28T09:48:06.729Z,26.23
2018-11-28T09:50:36.102Z,25.67
2018-11-28T09:53:06.641Z,22.32
2018-11-28T09:55:36.039Z,23.77
2018-11-28T09:58:06.321Z,24.40
2018-11-28T10:00:37.095Z,25.20
2018-11-28T10:03:06.333Z,24.60
2018-11-28T10:05:35.876Z,24.53
2018-11-28T10:08:06.422Z,23.48
2018-11-28T10:10:35.810Z,24.33
2018-11-28T10:13:06.677Z,24.27
2018-11-28T10:15:36.051Z,23.43
2018-11-28T10:18:06.487Z,24.98
2018-11-28T10:20:35.918Z,22.70
2018-11-28T10:23:06.674Z,24.90
2018-11-28T10:25:36.064Z,24.43
2018-11-28T10:28:08.300Z,22.87
2018-11-28T10:30:38.984Z,24.40
2018-11-28T10:33:10.176Z,24.53
2018-11-28T10:35:40.598Z,22.13
2018-11-28T10:38:09.999Z,23.83
2018-11-28T10:40:39.374Z,23.97
2018-11-28T10:43:10.160Z,25.23
2018-11-28T10:45:39.679Z,22.57
2018-11-28T10:48:11.841Z,23.13
2018-11-28T10:50:41.213Z,23.30
2018-11-28T10:53:10.583Z,22.60
2018-11-28T10:55:39.974Z,23.03
2018-11-28T10:58:09.542Z,23.80
2018-11-28T11:00:44.114Z,22.50
2018-11-28T11:03:19.570Z,24.10
2018-11-28T11:05:54.242Z,22.07
2018-11-28T11:08:25.188Z,22.93
2018-11-28T11:10:59.922Z,24.87
2018-11-28T11:13:35.360Z,22.13
2018-11-28T11:16:05.750Z,22.43
2018-11-28T11:18:35.147Z,23.17
2018-11-28T11:21:04.569Z,21.30
2018-11-28T11:23:33.942Z,22.93
2018-11-28T11:26:03.358Z,22.17
2018-11-28T11:28:32.908Z,21.97
2018-11-28T11:31:02.329Z,21.77
2018-11-28T11:33:31.908Z,22.67
2018-11-28T11:36:01.323Z,22.93
2018-11-28T11:38:32.227Z,22.60
2018-11-28T11:41:01.641Z,23.83
2018-11-28T11:43:31.007Z,22.57
2018-11-28T11:46:00.399Z,21.37
2018-11-28T11:48:29.780Z,22.00
2018-11-28T11:50:59.242Z,21.93
2018-11-28T11:53:28.614Z,21.30
2018-11-28T11:55:58.016Z,22.20
2018-11-28T11:58:27.407Z,21.50
2018-11-28T12:00:56.988Z,23.30
2018-11-28T12:03:31.414Z,23.10
2018-11-28T12:06:01.433Z,21.50
2018-11-28T12:08:31.432Z,22.93
2018-11-28T12:11:01.300Z,24.70
2018-11-28T12:13:30.784Z,21.97
2018-11-28T12:16:00.214Z,21.93
2018-11-28T12:18:29.549Z,21.73
2018-11-28T12:21:02.477Z,21.50
2018-11-28T12:23:31.826Z,22.70
2018-11-28T12:26:01.186Z,23.03
2018-11-28T12:28:30.585Z,22.10
2018-11-28T12:31:00.023Z,22.67
2018-11-28T12:33:29.437Z,21.97
2018-11-28T12:35:58.813Z,23.40
2018-11-28T12:38:28.230Z,21.30
2018-11-28T12:40:58.322Z,22.20
2018-11-28T12:43:27.796Z,19.30
2018-11-28T12:45:57.151Z,20.37
2018-11-28T12:48:26.507Z,21.70
2018-11-28T12:50:55.884Z,21.20
2018-11-28T12:53:25.244Z,20.23
2018-11-28T12:55:56.397Z,21.67
2018-11-28T12:58:25.830Z,20.67
2018-11-28T13:00:55.209Z,22.03
2018-11-28T13:03:24.617Z,21.07
2018-11-28T13:05:54.027Z,21.00
2018-11-28T13:08:23.517Z,21.52
2018-11-28T13:10:53.034Z,21.37
2018-11-28T13:13:22.408Z,21.85
2018-11-28T13:15:51.816Z,21.27
2018-11-28T13:18:21.212Z,21.43
2018-11-28T13:20:50.581Z,22.37
2018-11-28T13:23:23.682Z,22.43
2018-11-28T13:25:53.101Z,20.27
2018-11-28T13:28:22.528Z,21.27
2018-11-28T13:30:51.895Z,22.17
2018-11-28T13:33:21.296Z,21.53
2018-11-28T13:35:50.660Z,23.13
2018-11-28T13:40:49.398Z,23.27
2018-11-28T13:43:18.776Z,19.07
2018-11-28T13:45:49.629Z,21.77
2018-11-28T13:48:19.109Z,20.40
2018-11-28T13:50:49.647Z,20.93
2018-11-28T13:53:18.704Z,19.90
2018-11-28T13:56:57.361Z,21.50
2018-11-28T13:58:23.733Z,22.73
2018-11-28T14:00:53.135Z,20.50
2018-11-28T14:03:22.494Z,20.90
2018-11-28T14:05:51.933Z,21.37
2018-11-28T14:08:21.265Z,22.10
2018-11-28T14:10:50.766Z,19.70
2018-11-28T14:13:20.169Z,21.40
2018-11-28T14:15:49.565Z,19.93
2018-11-28T14:18:20.205Z,20.17
2018-11-28T14:20:49.609Z,20.37
2018-11-28T14:23:19.002Z,21.07
2018-11-28T14:25:48.402Z,20.07
2018-11-28T14:28:17.742Z,21.57
2018-11-28T14:30:47.920Z,20.60
2018-11-28T14:33:17.300Z,21.57
2018-11-28T14:35:46.674Z,21.73
2018-11-28T14:38:16.042Z,20.53
2018-11-28T14:40:45.393Z,20.37
2018-11-28T14:43:15.021Z,21.97
2018-11-28T14:45:44.421Z,20.47
2018-11-28T14:48:13.820Z,21.10
2018-11-28T14:50:43.169Z,18.97
2018-11-28T14:53:12.565Z,20.00
2018-11-28T14:55:42.289Z,19.47
2018-11-28T14:58:13.126Z,21.17
2018-11-28T15:00:42.721Z,19.20
2018-11-28T15:03:16.262Z,19.60
2018-11-28T15:06:13.806Z,21.27
2018-11-28T15:08:43.195Z,20.57
2018-11-28T15:11:13.951Z,20.13
2018-11-28T15:13:44.041Z,20.60
2018-11-28T15:16:13.412Z,20.07
2018-11-28T15:18:42.833Z,18.83
2018-11-28T15:21:12.734Z,19.47
2018-11-28T15:23:42.191Z,22.00
2018-11-28T15:26:11.576Z,20.60
2018-11-28T15:28:40.959Z,19.50
2018-11-28T15:31:10.345Z,19.93
2018-11-28T15:33:39.732Z,20.43
2018-11-28T15:36:09.181Z,19.67
2018-11-28T15:38:38.527Z,19.97
2018-11-28T15:41:09.110Z,18.97
2018-11-28T15:43:38.479Z,19.13
2018-11-28T15:46:07.882Z,19.17
2018-11-28T15:48:37.254Z,16.87
2018-11-28T15:51:06.915Z,19.17
2018-11-28T15:53:36.281Z,19.07
2018-11-28T15:56:06.608Z,16.65
2018-11-28T15:58:39.416Z,18.37
2018-11-28T16:01:08.850Z,17.80
2018-11-28T16:03:38.233Z,16.90
2018-11-28T16:06:07.657Z,18.33
2018-11-28T16:08:37.019Z,17.53
2018-11-28T16:11:11.503Z,16.73
2018-11-28T16:13:42.501Z,17.60
2018-11-28T16:16:12.978Z,16.30
2018-11-28T16:18:42.341Z,16.43
2018-11-28T16:21:11.709Z,16.52
2018-11-28T16:23:41.052Z,17.00
2018-11-28T16:26:10.464Z,16.65
2018-11-28T16:28:39.849Z,18.13
2018-11-28T16:31:09.399Z,17.60
2018-11-28T16:33:38.740Z,16.93
2018-11-28T16:36:08.110Z,17.37
2018-11-28T16:38:37.497Z,16.37
2018-11-28T16:41:06.960Z,16.20
2018-11-28T16:43:36.306Z,17.10
2018-11-28T16:46:06.807Z,17.05
2018-11-28T16:48:36.229Z,16.40
2018-11-28T16:51:06.992Z,16.33
2018-11-28T16:53:36.383Z,17.17
2018-11-28T16:56:07.014Z,15.98
2018-11-28T16:58:36.372Z,16.47
2018-11-28T17:01:06.945Z,16.70
2018-11-28T17:03:36.445Z,15.50
2018-11-28T17:06:06.673Z,17.42
2018-11-28T17:08:36.043Z,16.47
2018-11-28T17:11:06.208Z,16.13
2018-11-28T17:13:36.723Z,16.80
2018-11-28T17:16:06.158Z,16.57
2018-11-28T17:18:35.553Z,15.63
2018-11-28T17:21:06.258Z,16.60
2018-11-28T17:23:35.665Z,15.77
2018-11-28T17:26:08.677Z,15.70
2018-11-28T17:28:38.122Z,15.60
2018-11-28T17:31:07.487Z,16.20
2018-11-28T17:33:36.908Z,16.30
2018-11-28T17:36:06.260Z,16.10
2018-11-28T17:38:35.628Z,15.60
2018-11-28T17:41:06.769Z,15.78
2018-11-28T17:43:36.142Z,15.10
2018-11-28T17:46:06.702Z,16.67
2018-11-28T17:48:36.091Z,16.07
2018-11-28T17:51:06.434Z,17.02
2018-11-28T17:53:36.167Z,16.20
2018-11-28T17:56:06.907Z,16.50
2018-11-28T17:58:36.290Z,16.60
2018-11-28T18:01:06.151Z,16.63
2018-11-28T18:03:35.514Z,15.07
2018-11-28T18:06:06.441Z,15.83
2018-11-28T18:08:35.801Z,15.77
2018-11-28T18:11:15.615Z,15.60
2018-11-28T18:13:45.449Z,16.07
2018-11-28T18:16:14.828Z,16.52
2018-11-28T18:18:45.200Z,15.20
2018-11-28T18:21:14.561Z,16.27
2018-11-28T18:23:43.927Z,17.27
2018-11-28T18:26:15.077Z,15.25
2018-11-28T18:28:44.444Z,15.93
2018-11-28T18:31:13.862Z,16.10
2018-11-28T18:33:43.228Z,15.43
2018-11-28T18:36:12.610Z,17.10
2018-11-28T18:38:41.983Z,15.40
2018-11-28T18:41:11.358Z,16.07
2018-11-28T18:43:40.765Z,16.53
2018-11-28T18:46:10.678Z,15.93
2018-11-28T18:48:40.153Z,16.45
2018-11-28T18:51:09.529Z,16.63
2018-11-28T18:53:39.015Z,16.37
2018-11-28T18:56:08.369Z,17.33
2018-11-28T18:58:37.740Z,17.83
2018-11-28T19:01:07.273Z,17.27
2018-11-28T19:03:36.624Z,16.90
2018-11-28T19:06:06.796Z,18.82
2018-11-28T19:08:36.182Z,17.77
2018-11-28T19:11:07.335Z,18.77
2018-11-28T19:13:36.711Z,18.37
2018-11-28T19:16:06.697Z,17.67
2018-11-28T19:18:35.845Z,18.73
2018-11-28T19:21:06.294Z,18.50
2018-11-28T19:23:35.723Z,20.87
2018-11-28T19:26:06.640Z,19.67
2018-11-28T19:28:36.178Z,20.00
2018-11-28T19:31:06.673Z,21.27
2018-11-28T19:33:36.076Z,19.73
2018-11-28T19:36:08.134Z,20.32
2018-11-28T19:38:37.581Z,20.10
2018-11-28T19:41:10.506Z,21.13
2018-11-28T19:43:39.939Z,21.30
2018-11-28T19:46:09.407Z,19.80
2018-11-28T19:48:38.779Z,21.57
2018-11-28T19:51:08.181Z,22.47
2018-11-28T19:53:37.538Z,22.63
2018-11-28T19:56:07.649Z,21.03
2018-11-28T19:58:42.210Z,23.80
2018-11-28T20:01:12.547Z,22.20
2018-11-28T20:03:43.189Z,24.17
2018-11-28T20:06:12.608Z,24.13
2018-11-28T20:08:41.973Z,24.13
2018-11-28T20:11:11.349Z,25.10
2018-11-28T20:13:40.716Z,24.60
2018-11-28T20:16:10.157Z,23.83
2018-11-28T20:18:39.511Z,23.43
2018-11-28T20:21:08.851Z,25.53
2018-11-28T20:23:38.197Z,24.40
2018-11-28T20:26:10.873Z,26.45
2018-11-28T20:28:40.500Z,26.23
2018-11-28T20:31:13.269Z,26.67
2018-11-28T20:33:42.654Z,26.53
2018-11-28T20:36:12.493Z,26.37
2018-11-28T20:38:41.950Z,25.97
2018-11-28T20:41:12.099Z,28.63
2018-11-28T20:43:41.774Z,28.50
2018-11-28T20:46:11.163Z,27.82
2018-11-28T20:48:40.698Z,27.83
2018-11-28T20:51:10.151Z,29.05
2018-11-28T20:53:39.532Z,28.07
2018-11-28T20:56:08.917Z,29.03
2018-11-28T20:58:38.369Z,28.87
2018-11-28T21:01:07.761Z,30.73
2018-11-28T21:03:37.140Z,30.50
2018-11-28T21:06:07.027Z,30.23
2018-11-28T21:08:36.426Z,29.87
2018-11-28T21:11:07.522Z,29.40
2018-11-28T21:13:37.637Z,31.20
2018-11-28T21:16:09.321Z,30.12
2018-11-28T21:18:38.708Z,31.00
2018-11-28T21:21:08.853Z,26.93
2018-11-28T21:23:38.321Z,29.40
2018-11-28T21:26:07.797Z,27.83
2018-11-28T21:28:39.015Z,30.97
2018-11-28T21:31:08.497Z,29.90
2018-11-28T21:33:37.948Z,28.80
2018-11-28T21:36:08.578Z,30.30
2018-11-28T21:38:38.521Z,31.37
2018-11-28T21:41:08.017Z,31.17
2018-11-28T21:43:38.169Z,31.60
2018-11-28T21:46:08.084Z,32.87
2018-11-28T21:48:37.461Z,32.40
2018-11-28T21:51:06.917Z,30.03
2018-11-28T21:53:37.933Z,32.65
2018-11-28T21:56:09.225Z,33.63
2018-11-28T21:58:42.631Z,32.77
2018-11-28T22:01:15.604Z,30.93
2018-11-28T22:03:44.989Z,32.53
2018-11-28T22:06:14.564Z,33.03
2018-11-28T22:08:43.921Z,32.47
2018-11-28T22:11:15.980Z,32.45
2018-11-28T22:13:45.390Z,32.97
2018-11-28T22:16:14.775Z,32.87
2018-11-28T22:18:44.253Z,31.67
2018-11-28T22:21:13.604Z,31.80
2018-11-28T22:23:43.233Z,31.47
2018-11-28T22:26:12.327Z,32.60
2018-11-28T22:28:41.764Z,32.13
2018-11-28T22:31:11.365Z,31.50
2018-11-28T22:33:40.866Z,30.30
2018-11-28T22:36:10.246Z,33.02
2018-11-28T22:38:39.749Z,30.53
2018-11-28T22:41:09.102Z,30.10
2018-11-28T22:43:38.851Z,32.17
2018-11-28T22:46:08.292Z,31.47
2018-11-28T22:48:37.650Z,31.77
2018-11-28T22:51:07.221Z,31.23
2018-11-28T22:53:36.622Z,32.67
2018-11-28T22:56:06.067Z,33.50
2018-11-28T22:58:35.451Z,31.43
2018-11-28T23:01:08.384Z,31.80
2018-11-28T23:03:37.787Z,32.63
2018-11-28T23:06:07.144Z,31.87
2018-11-28T23:08:36.521Z,31.37
2018-11-28T23:11:06.934Z,30.77
2018-11-28T23:13:36.852Z,30.67
2018-11-28T23:16:06.457Z,28.77
2018-11-28T23:18:36.528Z,30.63
2018-11-28T23:21:06.514Z,29.97
2018-11-28T23:23:36.371Z,30.47
2018-11-28T23:26:06.301Z,28.85
2018-11-28T23:28:35.662Z,28.67
2018-11-28T23:31:06.464Z,26.47
2018-11-28T23:33:35.977Z,28.67
2018-11-28T23:36:06.571Z,29.32
2018-11-28T23:38:35.947Z,27.20
2018-11-28T23:41:06.902Z,27.43
2018-11-28T23:43:39.442Z,27.87
2018-11-28T23:46:09.988Z,28.30
2018-11-28T23:48:46.815Z,26.60
2018-11-28T23:51:17.574Z,26.15
2018-11-28T23:53:51.156Z,27.40
2018-11-28T23:56:21.823Z,24.83
2018-11-28T23:58:57.441Z,25.75
